Sierra Vista, AZ (85635)

2:52 PM MST on September 04, 2015 (GMT -0700)
Oakmont | | Change Station
CLOSE
Current Station
Personal Weather Station
Location: Sierra Vista, AZ
Elevation: 4550 ft
Nearby Weather Stations

Elev 4550 ft 31.53 °N, 110.26 °W | Updated 1 second ago

Rain
Rain
72.5 °F
Feels Like 74 °F
N
0.0
Wind Variable Wind from South
Gusts 2.5 mph

Today
High -- | Low -- °F
--% Chance of Precip.
Yesterday
High -- | Low -- °F
Precip. -- in
5:58 AM 6:41 PM
Waning Gibbous, 55% visible
Pressure 30.08 in
Visibility 7.0 miles
Clouds Mostly Cloudy 7500 ft
Overcast 10000 ft
Heat Index 74 °F
Dew Point 64 °F
Humidity 73%
Rainfall 0.07 in
Snow Depth Not available.
UV 3 out of 12
Pollen .70 out of 12
Air Quality Not available.
Flu Activity Not available.
SPECI KFHU 042125Z AUTO 16005KT 7SM -RA BKN075 OVC100 21/17 A3008 RMK AO2 RAB25 $
Pressure 30.08 in
Visibility 7.0 miles
Clouds Mostly Cloudy 7500 ft
Overcast 10000 ft
Heat Index 74 °F
Dew Point 64 °F
Humidity 73%
Rainfall 0.07 in
Snow Depth Not available.
UV 3 out of 12
Pollen .70 out of 12
Air Quality Not available.
Flu Activity Not available.
SPECI KFHU 042125Z AUTO 16005KT 7SM -RA BKN075 OVC100 21/17 A3008 RMK AO2 RAB25 $

10-Day Weather Forecast

×

Almanac

Astronomy

Sep. 04, 2015 Rise Set
Actual Time
Civil Twilight
Nautical Twilight
Astronomical Twilight
Moon
Length of Visible Light
Length of Day
Tomorrow will be .
, % of the Moon is Illuminated

Today's Extremes

State Highs State Lows

Community

WunderPhotos

Upload Photos

1,852,297 photos uploaded!

WunderBlogs® & News

Nearby

Air Quality

  Air Quality AQ Index Pollutant
Not available.

Snow Depth

Station Depth Elevation

Earthquake Activity

City Distance Mag. Time & Date
Minimum magnitude displayed is 2.5.

Coastal Water Temperatures

Place Temperature

Stations

Nearby Weather Stations

Station Location Temp. Windchill Dew Point Humidity Wind Precip. Elev Updated Type